< Typhoon 200723 2007 Season Typhoon 200801 >
Typhoon 200724 (HAGIBIS)
General InformationTrack Information on Google MapsDetailed Wind InformationAccess Analytics MapList of All Images || NewsDisaster Info.WeblogTrackbackTyphoon FrontResourceGoogle EarthGE AnimationAtom FeedGeoJSON
Detalied Best Track (Time Zone = UTC)
Year Month Day Hour Lat. Long. Pressure (hPa) Wind (kt) Class Image Chart
2007 11 18 18 8.9 127.0 1004 0 2 Image Chart
2007 11 19 00 9.8 125.5 1004 0 2 Image Chart
2007 11 19 06 9.9 124.1 1004 0 2 Image Chart
2007 11 19 12 9.7 122.8 1004 0 2 Image Chart
2007 11 19 18 9.6 121.7 1004 0 2 Image Chart
2007 11 20 00 9.6 120.2 1004 0 2 Image Chart
2007 11 20 06 9.6 118.9 1002 0 2 Image Chart
2007 11 20 12 9.6 117.8 1002 0 2 Image Chart
2007 11 20 18 9.6 116.7 1000 35 3 Image Chart
2007 11 21 00 9.6 115.7 996 40 3 Image Chart
2007 11 21 06 9.6 114.8 990 45 3 Image Chart
2007 11 21 12 9.7 113.8 985 50 4 Image Chart
2007 11 21 18 9.8 113.3 980 60 4 Image Chart
2007 11 22 00 10.3 112.8 975 65 5 Image Chart
2007 11 22 06 10.6 112.5 970 70 5 Image Chart
2007 11 22 12 10.8 112.0 970 70 5 Image Chart
2007 11 22 18 11.1 111.5 970 70 5 Image Chart
2007 11 23 00 11.4 111.0 970 70 5 Image Chart
2007 11 23 06 11.5 110.7 975 65 5 Image Chart
2007 11 23 12 11.6 110.6 975 65 5 Image Chart
2007 11 23 18 11.6 110.8 980 60 4 Image Chart
2007 11 24 00 11.7 111.2 985 55 4 Image Chart
2007 11 24 06 11.8 111.6 985 55 4 Image Chart
2007 11 24 12 11.9 112.2 990 50 4 Image Chart
2007 11 24 18 11.9 112.7 990 50 4 Image Chart
2007 11 25 00 11.9 113.2 992 45 3 Image Chart
2007 11 25 06 11.7 113.6 994 40 3 Image Chart
2007 11 25 12 11.5 113.7 994 40 3 Image Chart
2007 11 25 18 11.2 113.9 996 35 3 Image Chart
2007 11 26 00 11.1 114.9 996 35 3 Image Chart
2007 11 26 06 11.6 115.6 996 35 3 Image Chart
2007 11 26 12 11.4 116.8 996 35 3 Image Chart
2007 11 26 18 11.5 118.0 996 35 3 Image Chart
2007 11 27 00 12.1 119.2 996 35 3 Image Chart
2007 11 27 06 12.5 121.0 996 35 3 Image Chart
2007 11 27 12 12.7 122.9 998 0 2 Image Chart
2007 11 27 18 14.2 124.5 1000 0 2 Image Chart
Japan Meteorological Agency Best Track Data | Correction Date : 2007-12-25
< Typhoon 200723 2007 Season Typhoon 200801 >

Help